createdAt,value
2023-01-19T00:02:47.551Z,67.98
2023-01-19T00:05:37.694Z,68.23
2023-01-19T00:08:24.513Z,68.08
2023-01-19T00:11:12.726Z,67.97
2023-01-19T00:13:59.816Z,67.69
2023-01-19T00:16:49.412Z,67.56
2023-01-19T00:19:37.889Z,67.75
2023-01-19T00:22:24.759Z,67.92
2023-01-19T00:25:11.542Z,67.40
2023-01-19T00:28:00.640Z,67.89
2023-01-19T00:30:52.056Z,67.75
2023-01-19T00:33:38.926Z,67.58
2023-01-19T00:36:35.296Z,67.42
2023-01-19T00:39:22.233Z,67.75
2023-01-19T00:42:32.975Z,68.02
2023-01-19T00:45:24.675Z,67.66
2023-01-19T00:48:11.584Z,67.24
2023-01-19T00:50:59.955Z,67.71
2023-01-19T00:53:46.794Z,67.75
2023-01-19T00:56:33.858Z,67.84
2023-01-19T00:59:20.714Z,68.19
2023-01-19T01:02:07.757Z,67.65
2023-01-19T01:04:55.019Z,67.47
2023-01-19T01:07:42.776Z,67.81
2023-01-19T01:10:29.732Z,67.75
2023-01-19T01:13:21.600Z,67.93
2023-01-19T01:16:09.947Z,67.60
2023-01-19T01:18:56.802Z,67.87
2023-01-19T01:21:43.617Z,67.89
2023-01-19T01:24:30.484Z,67.78
2023-01-19T01:27:17.413Z,67.92
2023-01-19T01:30:05.218Z,67.87
2023-01-19T01:32:52.101Z,67.82
2023-01-19T01:35:40.655Z,67.83
2023-01-19T01:38:28.921Z,67.74
2023-01-19T01:41:15.762Z,67.74
2023-01-19T01:44:06.266Z,67.80
2023-01-19T01:46:55.206Z,67.60
2023-01-19T01:49:42.246Z,67.53
2023-01-19T01:52:29.913Z,67.41
2023-01-19T01:55:17.407Z,67.51
2023-01-19T01:58:05.146Z,67.68
2023-01-19T02:01:11.095Z,67.41
2023-01-19T02:03:58.555Z,67.59
2023-01-19T02:07:04.067Z,67.86
2023-01-19T02:10:11.458Z,67.71
2023-01-19T02:13:16.823Z,67.47
2023-01-19T02:16:07.352Z,67.21
2023-01-19T02:18:54.271Z,67.34
2023-01-19T02:21:44.124Z,67.47
2023-01-19T02:24:33.073Z,67.10
2023-01-19T02:27:20.315Z,67.23
2023-01-19T02:30:11.071Z,67.56
2023-01-19T02:32:58.290Z,67.50
2023-01-19T02:35:45.949Z,67.36
2023-01-19T02:38:32.792Z,67.43
2023-01-19T02:41:21.821Z,67.33
2023-01-19T02:44:10.145Z,67.43
2023-01-19T02:46:59.708Z,67.53
2023-01-19T02:49:59.976Z,67.46
2023-01-19T02:52:48.354Z,67.44
2023-01-19T02:55:35.298Z,67.28
2023-01-19T02:58:32.588Z,67.19
2023-01-19T03:01:44.238Z,67.61
2023-01-19T03:05:15.950Z,67.21
2023-01-19T03:08:07.875Z,67.27
2023-01-19T03:11:01.879Z,67.22
2023-01-19T03:13:54.341Z,67.24
2023-01-19T03:16:42.190Z,67.33
2023-01-19T03:19:34.053Z,67.08
2023-01-19T03:22:25.226Z,67.13
2023-01-19T03:25:15.233Z,67.70
2023-01-19T03:28:03.638Z,67.55
2023-01-19T03:30:58.988Z,67.70
2023-01-19T03:33:49.829Z,67.44
2023-01-19T03:36:41.573Z,67.63
2023-01-19T03:39:33.026Z,67.80
2023-01-19T03:42:20.445Z,67.56
2023-01-19T03:45:10.164Z,67.27
2023-01-19T03:47:57.476Z,67.54
2023-01-19T03:50:47.584Z,67.42
2023-01-19T03:53:34.366Z,67.75
2023-01-19T03:56:25.326Z,67.34
2023-01-19T03:59:12.190Z,67.28
2023-01-19T04:02:02.338Z,67.80
2023-01-19T04:04:49.186Z,67.57
2023-01-19T04:07:39.119Z,67.33
2023-01-19T04:10:25.947Z,67.35
2023-01-19T04:13:12.721Z,67.21
2023-01-19T04:16:01.337Z,67.43
2023-01-19T04:18:50.657Z,67.09
2023-01-19T04:21:37.563Z,67.28
2023-01-19T04:24:25.872Z,67.02
2023-01-19T04:27:15.000Z,66.90
2023-01-19T04:30:05.689Z,67.08
2023-01-19T04:32:52.777Z,66.92
2023-01-19T04:35:42.437Z,67.40
2023-01-19T04:38:31.993Z,67.35
2023-01-19T04:41:19.009Z,67.36
2023-01-19T04:44:05.971Z,67.05
2023-01-19T04:46:53.179Z,67.01
2023-01-19T04:49:40.448Z,66.95
2023-01-19T04:52:35.131Z,66.95
2023-01-19T04:55:22.324Z,67.04
2023-01-19T04:58:09.325Z,66.76
2023-01-19T05:00:56.216Z,66.88
2023-01-19T05:03:43.104Z,66.57
2023-01-19T05:06:29.950Z,66.88
2023-01-19T05:09:16.869Z,67.19
2023-01-19T05:12:03.871Z,66.98
2023-01-19T05:14:50.669Z,66.40
2023-01-19T05:17:37.712Z,66.60
2023-01-19T05:20:25.081Z,66.51
2023-01-19T05:23:11.925Z,66.45
2023-01-19T05:26:00.915Z,66.87
2023-01-19T05:28:47.712Z,66.69
2023-01-19T05:31:34.673Z,66.87
2023-01-19T05:34:21.525Z,66.98
2023-01-19T05:37:08.589Z,66.37
2023-01-19T05:39:55.445Z,66.57
2023-01-19T05:42:42.343Z,67.02
2023-01-19T05:45:30.647Z,66.49
2023-01-19T05:48:17.852Z,66.36
2023-01-19T05:51:07.731Z,66.71
2023-01-19T05:53:55.176Z,66.92
2023-01-19T05:56:44.897Z,66.60
2023-01-19T05:59:33.900Z,66.33
2023-01-19T06:02:20.863Z,66.80
2023-01-19T06:05:08.019Z,66.13
2023-01-19T06:07:57.149Z,66.80
2023-01-19T06:10:46.564Z,66.75
2023-01-19T06:13:35.846Z,65.99
2023-01-19T06:16:31.881Z,66.23
2023-01-19T06:19:21.635Z,66.58
2023-01-19T06:22:10.609Z,66.49
2023-01-19T06:24:57.504Z,66.24
2023-01-19T06:35:35.979Z,66.15
2023-01-19T06:38:23.291Z,66.70
2023-01-19T06:41:10.096Z,66.52
2023-01-19T06:43:58.060Z,67.07
2023-01-19T06:46:44.908Z,66.88
2023-01-19T06:49:31.700Z,66.30
2023-01-19T06:52:25.072Z,66.42
2023-01-19T06:55:12.493Z,66.42
2023-01-19T06:58:09.021Z,66.70
2023-01-19T07:01:05.880Z,66.75
2023-01-19T07:03:53.104Z,66.67
2023-01-19T07:06:43.963Z,66.30
2023-01-19T07:09:33.445Z,66.23
2023-01-19T07:12:20.205Z,66.22
2023-01-19T07:15:07.838Z,66.22
2023-01-19T07:18:01.430Z,66.29
2023-01-19T07:20:52.309Z,66.32
2023-01-19T07:23:39.211Z,66.76
2023-01-19T07:26:27.969Z,66.37
2023-01-19T07:29:14.824Z,66.68
2023-01-19T07:32:01.598Z,66.32
2023-01-19T07:34:51.392Z,66.35
2023-01-19T07:37:41.697Z,66.60
2023-01-19T07:40:30.048Z,66.38
2023-01-19T07:43:17.440Z,66.14
2023-01-19T07:46:08.312Z,66.36
2023-01-19T07:48:55.741Z,66.79
2023-01-19T07:51:45.492Z,66.93
2023-01-19T07:54:32.284Z,66.57
2023-01-19T07:57:22.092Z,66.62
2023-01-19T08:00:09.543Z,66.95
2023-01-19T08:03:02.211Z,66.84
2023-01-19T08:05:51.288Z,66.76
2023-01-19T08:08:38.163Z,66.77
2023-01-19T08:11:24.931Z,66.77
2023-01-19T08:14:11.692Z,66.65
2023-01-19T08:17:03.504Z,66.32
2023-01-19T08:19:56.263Z,66.36
2023-01-19T08:23:09.594Z,66.70
2023-01-19T08:26:00.196Z,66.97
2023-01-19T08:28:47.245Z,66.73
2023-01-19T08:31:39.641Z,66.58
2023-01-19T08:34:27.145Z,66.85
2023-01-19T08:37:13.998Z,66.61
2023-01-19T08:40:03.665Z,66.40
2023-01-19T08:42:52.634Z,67.21
2023-01-19T08:45:48.473Z,67.17
2023-01-19T08:48:39.925Z,67.32
2023-01-19T08:51:27.024Z,67.03
2023-01-19T08:54:13.910Z,67.26
2023-01-19T08:57:02.248Z,67.05
2023-01-19T08:59:49.633Z,67.32
2023-01-19T09:02:40.437Z,67.55
2023-01-19T09:06:03.784Z,67.56
2023-01-19T09:08:51.219Z,67.00
2023-01-19T09:11:46.989Z,67.12
2023-01-19T09:14:33.926Z,67.68
2023-01-19T09:17:20.768Z,67.57
2023-01-19T09:20:08.977Z,67.47
2023-01-19T09:22:56.345Z,67.81
2023-01-19T09:25:44.569Z,67.59
2023-01-19T09:28:31.551Z,67.42
2023-01-19T09:31:26.168Z,68.30
2023-01-19T09:34:21.366Z,67.80
2023-01-19T09:37:12.997Z,68.39
2023-01-19T09:40:11.239Z,68.39
2023-01-19T09:43:25.362Z,68.57
2023-01-19T09:46:27.115Z,67.99
2023-01-19T09:49:28.488Z,68.69
2023-01-19T09:52:21.010Z,68.12
2023-01-19T09:55:41.312Z,68.89
2023-01-19T09:58:41.130Z,69.29
2023-01-19T10:02:22.274Z,68.30
2023-01-19T10:05:32.067Z,68.76
2023-01-19T10:08:18.960Z,68.29
2023-01-19T10:11:23.878Z,68.86
2023-01-19T10:14:31.704Z,68.92
2023-01-19T10:17:46.927Z,68.33
2023-01-19T10:20:43.528Z,68.61
2023-01-19T10:24:04.070Z,68.43
2023-01-19T10:26:58.110Z,68.78
2023-01-19T10:29:45.942Z,68.72
2023-01-19T10:32:36.042Z,68.71
2023-01-19T10:35:29.910Z,68.61
2023-01-19T10:38:44.168Z,68.85
2023-01-19T10:42:14.417Z,68.06
2023-01-19T10:45:14.744Z,68.91
2023-01-19T10:48:20.936Z,69.04
2023-01-19T10:51:23.696Z,68.88
2023-01-19T10:54:21.309Z,68.68
2023-01-19T10:57:23.044Z,68.57
2023-01-19T11:00:33.688Z,68.60
2023-01-19T11:03:45.218Z,69.01
2023-01-19T11:09:52.207Z,68.87
2023-01-19T11:13:44.471Z,69.35
2023-01-19T11:16:43.865Z,68.53
2023-01-19T11:19:38.666Z,69.35
2023-01-19T11:22:38.820Z,69.22
2023-01-19T11:25:46.340Z,69.51
2023-01-19T11:28:51.831Z,68.91
2023-01-19T11:32:30.770Z,68.85
2023-01-19T11:35:10.072Z,68.94
2023-01-19T11:39:05.534Z,69.17
2023-01-19T11:42:08.618Z,68.78
2023-01-19T11:45:21.696Z,69.17
2023-01-19T11:48:31.211Z,69.15
2023-01-19T11:51:28.040Z,69.24
2023-01-19T11:54:59.492Z,69.12
2023-01-19T12:01:38.259Z,69.08
2023-01-19T12:10:56.824Z,69.40
2023-01-19T16:22:39.720Z,67.26
2023-01-19T16:25:28.936Z,67.35
2023-01-19T16:28:15.978Z,67.66
2023-01-19T16:31:03.417Z,67.98
2023-01-19T16:33:50.324Z,67.71
2023-01-19T16:36:43.599Z,67.59
2023-01-19T16:39:30.789Z,67.73
2023-01-19T16:42:23.421Z,67.51
2023-01-19T16:45:13.590Z,67.87
2023-01-19T16:48:00.645Z,67.73
2023-01-19T16:51:01.631Z,67.39
2023-01-19T16:53:55.060Z,67.74
2023-01-19T16:56:42.717Z,67.19
2023-01-19T16:59:29.621Z,67.55
2023-01-19T17:02:19.819Z,67.38
2023-01-19T17:05:07.324Z,67.58
2023-01-19T17:07:54.371Z,66.93
2023-01-19T17:10:43.616Z,67.57
2023-01-19T17:13:30.901Z,67.08
2023-01-19T17:16:20.878Z,67.27
2023-01-19T17:19:14.889Z,67.54
2023-01-19T17:22:01.794Z,66.91
2023-01-19T17:24:49.259Z,67.14
2023-01-19T17:27:36.678Z,67.58
2023-01-19T17:30:23.569Z,67.69
2023-01-19T17:33:12.778Z,67.14
2023-01-19T17:36:05.228Z,67.02
2023-01-19T17:38:56.823Z,67.95
2023-01-19T17:41:45.116Z,67.83
2023-01-19T17:44:32.103Z,67.28
2023-01-19T17:47:30.424Z,67.70
2023-01-19T17:50:17.600Z,67.87
2023-01-19T17:53:04.814Z,67.01
2023-01-19T17:55:54.822Z,67.12
2023-01-19T17:58:44.998Z,67.64
2023-01-19T18:02:15.598Z,67.67
2023-01-19T18:05:00.771Z,67.52
2023-01-19T18:07:50.119Z,67.25
2023-01-19T18:10:50.046Z,68.03
2023-01-19T18:13:51.811Z,67.47
2023-01-19T18:16:40.437Z,67.42
2023-01-19T18:19:27.405Z,67.01
2023-01-19T18:22:14.536Z,67.87
2023-01-19T18:25:06.377Z,67.89
2023-01-19T18:27:59.256Z,67.63
2023-01-19T18:30:46.310Z,67.38
2023-01-19T18:33:51.093Z,67.33
2023-01-19T18:36:40.151Z,67.45
2023-01-19T18:39:36.265Z,67.42
2023-01-19T18:42:34.885Z,68.02
2023-01-19T18:45:34.062Z,67.47
2023-01-19T18:49:02.222Z,67.79
2023-01-19T18:51:55.304Z,67.54
2023-01-19T18:54:46.513Z,67.72
2023-01-19T18:57:36.640Z,68.11
2023-01-19T19:00:48.923Z,67.76
2023-01-19T19:03:59.066Z,67.50
2023-01-19T19:06:51.497Z,67.61
2023-01-19T19:10:28.538Z,68.02
2023-01-19T19:17:48.254Z,67.86
2023-01-19T19:25:20.139Z,67.69
2023-01-19T19:32:47.224Z,67.66
2023-01-19T19:36:21.244Z,67.87
2023-01-19T19:42:37.103Z,67.96
2023-01-19T19:45:30.512Z,68.12
2023-01-19T19:51:34.752Z,68.26
2023-01-19T19:54:24.807Z,68.12
2023-01-19T19:57:18.002Z,67.85
2023-01-19T20:03:38.037Z,68.00
2023-01-19T20:06:32.834Z,68.18
2023-01-19T20:09:27.783Z,67.97
2023-01-19T20:12:23.257Z,67.91
2023-01-19T20:15:14.104Z,68.60
2023-01-19T20:18:21.094Z,67.82
2023-01-19T20:21:38.667Z,67.42
2023-01-19T20:24:29.627Z,67.97
2023-01-19T20:27:16.492Z,67.98
2023-01-19T20:30:10.046Z,67.78
2023-01-19T20:32:57.016Z,67.73
2023-01-19T20:35:48.401Z,67.87
2023-01-19T20:38:36.750Z,68.23
2023-01-19T20:41:30.383Z,67.62
2023-01-19T20:44:20.047Z,67.82
2023-01-19T20:47:09.268Z,67.72
2023-01-19T20:49:56.188Z,67.85
2023-01-19T20:52:43.026Z,68.20
2023-01-19T20:55:30.303Z,67.39
2023-01-19T20:58:17.727Z,68.01
2023-01-19T21:01:19.650Z,68.16
2023-01-19T21:04:06.906Z,67.82
2023-01-19T21:06:55.167Z,68.16
2023-01-19T21:09:42.191Z,68.17
2023-01-19T21:12:29.196Z,67.76
2023-01-19T21:15:19.033Z,67.98
2023-01-19T21:18:07.306Z,68.26
2023-01-19T21:20:55.245Z,68.02
2023-01-19T21:23:42.164Z,68.11
2023-01-19T21:26:35.251Z,68.42
2023-01-19T21:29:22.156Z,68.35
2023-01-19T21:32:11.397Z,68.71
2023-01-19T21:34:58.245Z,68.47
2023-01-19T21:37:47.369Z,68.14
2023-01-19T21:40:34.431Z,68.15
2023-01-19T21:43:23.311Z,68.12
2023-01-19T21:46:19.445Z,68.03
2023-01-19T21:49:22.017Z,68.42
2023-01-19T21:52:11.264Z,68.59
2023-01-19T21:54:58.323Z,68.09
2023-01-19T21:57:45.301Z,68.08
2023-01-19T22:00:36.820Z,67.98
2023-01-19T22:03:25.665Z,68.07
2023-01-19T22:06:16.860Z,68.35
2023-01-19T22:09:04.452Z,68.11
2023-01-19T22:11:51.330Z,68.50
2023-01-19T22:14:40.502Z,68.60
2023-01-19T22:17:27.385Z,68.67
2023-01-19T22:20:20.317Z,68.21
2023-01-19T22:23:07.199Z,68.33
2023-01-19T22:25:54.074Z,68.78
2023-01-19T22:28:40.867Z,68.07
2023-01-19T22:31:28.868Z,68.02
2023-01-19T22:34:18.782Z,68.38
2023-01-19T22:37:06.545Z,68.50
2023-01-19T22:39:55.485Z,68.14
2023-01-19T22:42:48.700Z,68.24
2023-01-19T22:45:35.518Z,68.21
2023-01-19T22:48:22.484Z,68.49
2023-01-19T22:51:09.331Z,68.11
2023-01-19T22:53:56.281Z,68.10
2023-01-19T22:56:45.828Z,68.19
2023-01-19T22:59:32.602Z,68.13
2023-01-19T23:02:21.061Z,68.71
2023-01-19T23:05:11.302Z,68.84
2023-01-19T23:07:58.250Z,68.51
2023-01-19T23:10:47.641Z,68.37
2023-01-19T23:13:37.367Z,68.21
2023-01-19T23:16:24.676Z,67.94
2023-01-19T23:19:12.272Z,68.30
2023-01-19T23:22:02.689Z,68.16
2023-01-19T23:24:49.511Z,68.15
2023-01-19T23:27:36.420Z,68.53
2023-01-19T23:30:25.772Z,67.78
2023-01-19T23:33:12.649Z,68.86
2023-01-19T23:35:59.407Z,68.45
2023-01-19T23:38:51.030Z,68.07
2023-01-19T23:41:38.129Z,68.12
2023-01-19T23:44:27.030Z,68.19
2023-01-19T23:47:13.861Z,68.23
2023-01-19T23:50:00.892Z,68.08
2023-01-19T23:52:47.812Z,68.13
2023-01-19T23:55:34.622Z,67.97
2023-01-19T23:58:21.452Z,67.90
